Clayton, New York
Current Conditions -  °F | °C
As of 4:56 PM on Wednesday 22 Oct 2014 (Local Time) from KART Reporting Station
Overcast Overcast  
Wind Chill: 50°   Ceiling: 6000
Heat Index: 50°   Visibility: 10mi
Dew Point: 39°   Wind: 14mph
Humidity: 66%   Direction: 30°NNE
Pressure: 30.18"   Gusts: NA
Location:  44.24°N, 76.09°W
Report Text: KART 222056Z AUTO 03012KT 10SM FEW020 OVC060 10/04 A3018 RMK AO2 SLP220 T01000039 51003
Loading
Personal Weather Stations






























Interactive Weather Map
Tropical Storm Tracking
New forecast layout! Learn more

10-Day Weather Forecast

Advertisements
Track Severe Weather on mobile